sensor_id;sensor_type;location;lat;lon;timestamp;pressure;altitude;pressure_sealevel;temperature;humidity
3844;BME280;1937;51.444;6.484;2022-11-20T00:01:43;66651.22;;;0.06;89.22
3844;BME280;1937;51.444;6.484;2022-11-20T00:04:12;66661.09;;;0.08;88.99
3844;BME280;1937;51.444;6.484;2022-11-20T00:06:40;66711.69;;;0.08;89.42
3844;BME280;1937;51.444;6.484;2022-11-20T00:09:11;66708.19;;;0.11;89.51
3844;BME280;1937;51.444;6.484;2022-11-20T00:11:39;66691.78;;;0.17;89.41
3844;BME280;1937;51.444;6.484;2022-11-20T00:14:08;66700.34;;;0.13;89.20
3844;BME280;1937;51.444;6.484;2022-11-20T00:16:38;66652.94;;;0.07;89.16
3844;BME280;1937;51.444;6.484;2022-11-20T00:19:07;66716.94;;;0.30;89.08
3844;BME280;1937;51.444;6.484;2022-11-20T00:21:35;66709.41;;;0.23;89.38
3844;BME280;1937;51.444;6.484;2022-11-20T00:24:04;66707.16;;;0.15;88.88
3844;BME280;1937;51.444;6.484;2022-11-20T00:26:34;66817.69;;;0.40;89.47
3844;BME280;1937;51.444;6.484;2022-11-20T00:29:03;66738.47;;;0.35;89.55
3844;BME280;1937;51.444;6.484;2022-11-20T00:31:34;66728.78;;;0.31;89.37
3844;BME280;1937;51.444;6.484;2022-11-20T00:34:03;66802.72;;;0.38;89.76
3844;BME280;1937;51.444;6.484;2022-11-20T00:36:34;66796.84;;;0.64;89.25
3844;BME280;1937;51.444;6.484;2022-11-20T00:39:03;66758.75;;;0.53;89.21
3844;BME280;1937;51.444;6.484;2022-11-20T00:41:33;66767.31;;;0.56;89.20
3844;BME280;1937;51.444;6.484;2022-11-20T00:44:03;66777.44;;;0.56;88.95
3844;BME280;1937;51.444;6.484;2022-11-20T00:46:31;66788.13;;;0.57;88.46
3844;BME280;1937;51.444;6.484;2022-11-20T00:49:00;66782.34;;;0.52;88.39
3844;BME280;1937;51.444;6.484;2022-11-20T00:51:28;66710.22;;;0.22;89.37
3844;BME280;1937;51.444;6.484;2022-11-20T00:53:57;66751.84;;;0.23;89.60
3844;BME280;1937;51.444;6.484;2022-11-20T00:56:27;66732.53;;;0.26;89.79
3844;BME280;1937;51.444;6.484;2022-11-20T00:58:58;66687.84;;;0.18;88.77
3844;BME280;1937;51.444;6.484;2022-11-20T01:01:28;66727.41;;;0.15;88.88
3844;BME280;1937;51.444;6.484;2022-11-20T01:03:59;66697.81;;;0.13;88.91
3844;BME280;1937;51.444;6.484;2022-11-20T01:06:29;66696.50;;;-0.10;89.09
3844;BME280;1937;51.444;6.484;2022-11-20T01:09:00;66655.78;;;-0.26;89.54
3844;BME280;1937;51.444;6.484;2022-11-20T01:11:30;66700.09;;;-0.20;89.93
3844;BME280;1937;51.444;6.484;2022-11-20T01:14:00;66704.41;;;-0.25;90.10
3844;BME280;1937;51.444;6.484;2022-11-20T01:16:34;66664.81;;;-0.33;91.43
3844;BME280;1937;51.444;6.484;2022-11-20T01:19:05;66744.63;;;-0.23;91.66
3844;BME280;1937;51.444;6.484;2022-11-20T01:21:35;66791.66;;;-0.13;91.32
3844;BME280;1937;51.444;6.484;2022-11-20T01:24:05;66732.72;;;0.06;90.53
3844;BME280;1937;51.444;6.484;2022-11-20T01:26:39;66768.63;;;-0.05;90.85
3844;BME280;1937;51.444;6.484;2022-11-20T01:29:08;66766.47;;;-0.02;90.71
3844;BME280;1937;51.444;6.484;2022-11-20T01:31:39;66753.97;;;0.03;89.80
3844;BME280;1937;51.444;6.484;2022-11-20T01:34:09;66733.78;;;-0.04;89.59
3844;BME280;1937;51.444;6.484;2022-11-20T01:36:39;66757.88;;;0.02;89.19
3844;BME280;1937;51.444;6.484;2022-11-20T01:39:10;66716.22;;;0.00;89.82
3844;BME280;1937;51.444;6.484;2022-11-20T01:41:39;66752.72;;;-0.10;89.13
3844;BME280;1937;51.444;6.484;2022-11-20T01:44:45;66723.81;;;0.00;89.36
3844;BME280;1937;51.444;6.484;2022-11-20T01:47:20;66705.38;;;-0.05;89.01
3844;BME280;1937;51.444;6.484;2022-11-20T01:49:52;66730.09;;;-0.05;90.59
3844;BME280;1937;51.444;6.484;2022-11-20T01:52:25;66760.13;;;0.10;89.59
3844;BME280;1937;51.444;6.484;2022-11-20T01:54:58;66753.34;;;0.09;88.90
3844;BME280;1937;51.444;6.484;2022-11-20T01:57:29;66706.59;;;-0.10;88.54
3844;BME280;1937;51.444;6.484;2022-11-20T02:00:04;66665.75;;;-0.30;89.47
3844;BME280;1937;51.444;6.484;2022-11-20T02:02:36;66704.53;;;-0.38;90.64
3844;BME280;1937;51.444;6.484;2022-11-20T02:05:12;66738.22;;;-0.22;90.55
3844;BME280;1937;51.444;6.484;2022-11-20T02:07:43;66752.06;;;-0.28;90.24
3844;BME280;1937;51.444;6.484;2022-11-20T02:10:13;66685.94;;;-0.48;90.75
3844;BME280;1937;51.444;6.484;2022-11-20T02:12:42;66723.84;;;-0.48;91.34
3844;BME280;1937;51.444;6.484;2022-11-20T02:15:28;66787.69;;;-0.30;91.30
3844;BME280;1937;51.444;6.484;2022-11-20T02:17:58;66755.19;;;-0.27;90.82
3844;BME280;1937;51.444;6.484;2022-11-20T02:20:26;66808.97;;;-0.16;90.57
3844;BME280;1937;51.444;6.484;2022-11-20T02:22:57;66815.03;;;-0.19;90.23
3844;BME280;1937;51.444;6.484;2022-11-20T02:25:29;66709.88;;;-0.29;90.21
3844;BME280;1937;51.444;6.484;2022-11-20T02:27:59;66763.84;;;-0.13;90.15
3844;BME280;1937;51.444;6.484;2022-11-20T02:30:28;66796.13;;;-0.45;89.88
3844;BME280;1937;51.444;6.484;2022-11-20T02:32:57;66693.09;;;-0.44;89.96
3844;BME280;1937;51.444;6.484;2022-11-20T02:35:42;66656.06;;;-0.59;90.58
3844;BME280;1937;51.444;6.484;2022-11-20T02:38:12;66657.16;;;-0.69;90.84
3844;BME280;1937;51.444;6.484;2022-11-20T02:40:42;66660.16;;;-0.79;91.09
3844;BME280;1937;51.444;6.484;2022-11-20T02:43:11;66687.56;;;-0.82;91.29
3844;BME280;1937;51.444;6.484;2022-11-20T02:45:40;66680.41;;;-0.86;91.25
3844;BME280;1937;51.444;6.484;2022-11-20T02:48:08;66699.28;;;-0.92;92.00
3844;BME280;1937;51.444;6.484;2022-11-20T02:50:39;66695.25;;;-0.95;92.12
3844;BME280;1937;51.444;6.484;2022-11-20T02:53:08;66672.56;;;-1.02;92.60
3844;BME280;1937;51.444;6.484;2022-11-20T02:55:37;66712.91;;;-0.95;92.29
3844;BME280;1937;51.444;6.484;2022-11-20T02:58:07;66692.72;;;-0.95;92.57
3844;BME280;1937;51.444;6.484;2022-11-20T03:00:36;66688.91;;;-1.07;93.17
3844;BME280;1937;51.444;6.484;2022-11-20T03:03:04;66695.91;;;-1.08;93.53
3844;BME280;1937;51.444;6.484;2022-11-20T03:05:33;66780.88;;;-0.93;93.62
3844;BME280;1937;51.444;6.484;2022-11-20T03:08:01;66759.97;;;-1.05;94.26
3844;BME280;1937;51.444;6.484;2022-11-20T03:10:29;66767.59;;;-1.11;94.36
3844;BME280;1937;51.444;6.484;2022-11-20T03:12:58;66785.34;;;-0.94;93.59
3844;BME280;1937;51.444;6.484;2022-11-20T03:15:28;66761.63;;;-1.21;93.39
3844;BME280;1937;51.444;6.484;2022-11-20T03:17:57;66787.56;;;-1.03;93.79
3844;BME280;1937;51.444;6.484;2022-11-20T03:20:26;66780.41;;;-1.07;93.69
3844;BME280;1937;51.444;6.484;2022-11-20T03:22:55;66813.50;;;-0.85;93.94
3844;BME280;1937;51.444;6.484;2022-11-20T03:25:23;66812.53;;;-0.88;93.73
3844;BME280;1937;51.444;6.484;2022-11-20T03:27:52;66834.22;;;-0.71;93.38
3844;BME280;1937;51.444;6.484;2022-11-20T03:30:20;66897.69;;;-0.55;92.86
3844;BME280;1937;51.444;6.484;2022-11-20T03:32:52;66815.97;;;-0.78;93.32
3844;BME280;1937;51.444;6.484;2022-11-20T03:35:20;66868.75;;;-0.63;94.24
3844;BME280;1937;51.444;6.484;2022-11-20T03:37:49;66980.44;;;-0.36;93.23
3844;BME280;1937;51.444;6.484;2022-11-20T03:40:17;66962.16;;;-0.36;94.25
3844;BME280;1937;51.444;6.484;2022-11-20T03:42:45;66979.16;;;-0.11;92.94
3844;BME280;1937;51.444;6.484;2022-11-20T03:45:15;66968.44;;;-0.05;92.94
3844;BME280;1937;51.444;6.484;2022-11-20T03:47:44;66906.00;;;-0.06;92.18
3844;BME280;1937;51.444;6.484;2022-11-20T03:50:14;66900.59;;;-0.15;92.71
3844;BME280;1937;51.444;6.484;2022-11-20T03:52:43;66940.38;;;0.04;92.08
3844;BME280;1937;51.444;6.484;2022-11-20T03:55:11;66874.19;;;-0.23;92.03
3844;BME280;1937;51.444;6.484;2022-11-20T03:57:40;66940.25;;;-0.07;92.12
3844;BME280;1937;51.444;6.484;2022-11-20T04:00:10;66907.63;;;-0.22;91.82
3844;BME280;1937;51.444;6.484;2022-11-20T04:02:38;66843.13;;;-0.34;92.38
3844;BME280;1937;51.444;6.484;2022-11-20T04:05:08;66883.25;;;-0.06;92.33
3844;BME280;1937;51.444;6.484;2022-11-20T04:07:37;66972.16;;;-0.10;91.98
3844;BME280;1937;51.444;6.484;2022-11-20T04:10:09;66931.63;;;0.03;91.59
3844;BME280;1937;51.444;6.484;2022-11-20T04:12:37;66861.63;;;-0.05;91.25
3844;BME280;1937;51.444;6.484;2022-11-20T04:15:06;66873.97;;;0.10;91.50
3844;BME280;1937;51.444;6.484;2022-11-20T04:17:35;66951.63;;;0.12;91.78
3844;BME280;1937;51.444;6.484;2022-11-20T04:20:05;66972.91;;;0.32;92.10
3844;BME280;1937;51.444;6.484;2022-11-20T04:22:33;66916.59;;;0.08;91.55
3844;BME280;1937;51.444;6.484;2022-11-20T04:25:04;66994.88;;;0.40;91.30
3844;BME280;1937;51.444;6.484;2022-11-20T04:27:33;66953.81;;;0.33;91.48
3844;BME280;1937;51.444;6.484;2022-11-20T04:30:01;66958.50;;;0.31;91.28
3844;BME280;1937;51.444;6.484;2022-11-20T04:32:30;66901.72;;;0.23;91.02
3844;BME280;1937;51.444;6.484;2022-11-20T04:34:59;66925.56;;;0.37;91.47
3844;BME280;1937;51.444;6.484;2022-11-20T04:37:27;66910.97;;;0.38;91.02
3844;BME280;1937;51.444;6.484;2022-11-20T04:39:55;66914.31;;;0.30;91.18
3844;BME280;1937;51.444;6.484;2022-11-20T04:42:25;66968.97;;;0.40;91.41
3844;BME280;1937;51.444;6.484;2022-11-20T04:44:56;67018.28;;;0.65;89.13
3844;BME280;1937;51.444;6.484;2022-11-20T04:47:26;66921.69;;;0.63;88.94
3844;BME280;1937;51.444;6.484;2022-11-20T04:49:54;66877.63;;;0.42;89.16
3844;BME280;1937;51.444;6.484;2022-11-20T04:52:22;66874.28;;;0.50;89.73
3844;BME280;1937;51.444;6.484;2022-11-20T04:54:51;66918.63;;;0.56;89.31
3844;BME280;1937;51.444;6.484;2022-11-20T04:57:21;66863.13;;;0.54;89.03
3844;BME280;1937;51.444;6.484;2022-11-20T04:59:51;66849.22;;;0.17;89.91
3844;BME280;1937;51.444;6.484;2022-11-20T05:02:19;66815.69;;;0.23;90.45
3844;BME280;1937;51.444;6.484;2022-11-20T05:04:47;66854.44;;;0.22;90.70
3844;BME280;1937;51.444;6.484;2022-11-20T05:07:16;66828.66;;;0.08;90.93
3844;BME280;1937;51.444;6.484;2022-11-20T05:09:45;66904.56;;;0.32;90.68
3844;BME280;1937;51.444;6.484;2022-11-20T05:12:14;66900.97;;;0.18;91.56
3844;BME280;1937;51.444;6.484;2022-11-20T05:14:42;66938.03;;;0.39;91.42
3844;BME280;1937;51.444;6.484;2022-11-20T05:17:13;66956.22;;;0.53;90.95
3844;BME280;1937;51.444;6.484;2022-11-20T05:19:41;66895.00;;;0.39;91.32
3844;BME280;1937;51.444;6.484;2022-11-20T05:22:09;66933.91;;;0.43;90.67
3844;BME280;1937;51.444;6.484;2022-11-20T05:24:37;66893.63;;;0.40;90.49
3844;BME280;1937;51.444;6.484;2022-11-20T05:27:06;66911.75;;;0.36;90.85
3844;BME280;1937;51.444;6.484;2022-11-20T05:29:34;66847.75;;;0.31;91.06
3844;BME280;1937;51.444;6.484;2022-11-20T05:32:02;66939.50;;;0.50;91.67
3844;BME280;1937;51.444;6.484;2022-11-20T05:34:34;66959.13;;;0.56;91.53
3844;BME280;1937;51.444;6.484;2022-11-20T05:37:03;66989.66;;;0.67;91.16
3844;BME280;1937;51.444;6.484;2022-11-20T05:39:32;66933.63;;;0.58;90.59
3844;BME280;1937;51.444;6.484;2022-11-20T05:42:01;66963.47;;;0.51;91.05
3844;BME280;1937;51.444;6.484;2022-11-20T05:44:47;66940.06;;;0.57;90.83
3844;BME280;1937;51.444;6.484;2022-11-20T05:47:16;66908.63;;;0.36;91.17
3844;BME280;1937;51.444;6.484;2022-11-20T05:49:45;66980.09;;;0.67;91.04
3844;BME280;1937;51.444;6.484;2022-11-20T05:52:15;66984.16;;;0.71;91.03
3844;BME280;1937;51.444;6.484;2022-11-20T05:54:44;66965.81;;;0.77;91.24
3844;BME280;1937;51.444;6.484;2022-11-20T05:57:12;67041.94;;;0.88;90.54
3844;BME280;1937;51.444;6.484;2022-11-20T05:59:41;66986.59;;;0.84;90.72
3844;BME280;1937;51.444;6.484;2022-11-20T06:02:10;66957.88;;;0.68;90.65
3844;BME280;1937;51.444;6.484;2022-11-20T06:04:38;66954.47;;;0.58;91.50
3844;BME280;1937;51.444;6.484;2022-11-20T06:07:08;66993.88;;;0.75;91.85
3844;BME280;1937;51.444;6.484;2022-11-20T06:09:36;66986.38;;;0.62;92.20
3844;BME280;1937;51.444;6.484;2022-11-20T06:12:09;67011.56;;;0.81;92.11
3844;BME280;1937;51.444;6.484;2022-11-20T06:14:37;66996.66;;;0.66;92.38
3844;BME280;1937;51.444;6.484;2022-11-20T06:17:05;67046.63;;;0.86;92.44
3844;BME280;1937;51.444;6.484;2022-11-20T06:19:33;67051.97;;;1.01;91.18
3844;BME280;1937;51.444;6.484;2022-11-20T06:22:02;67079.50;;;0.92;91.42
3844;BME280;1937;51.444;6.484;2022-11-20T06:24:31;66987.97;;;0.83;91.35
3844;BME280;1937;51.444;6.484;2022-11-20T06:27:00;66974.59;;;0.71;91.19
3844;BME280;1937;51.444;6.484;2022-11-20T06:29:28;67006.16;;;0.72;92.41
3844;BME280;1937;51.444;6.484;2022-11-20T06:31:57;67078.06;;;0.69;91.95
3844;BME280;1937;51.444;6.484;2022-11-20T06:34:25;67044.16;;;0.72;92.55
3844;BME280;1937;51.444;6.484;2022-11-20T06:36:53;67025.75;;;0.54;93.06
3844;BME280;1937;51.444;6.484;2022-11-20T06:39:21;67103.44;;;1.00;93.49
3844;BME280;1937;51.444;6.484;2022-11-20T06:41:51;67120.31;;;0.77;92.98
3844;BME280;1937;51.444;6.484;2022-11-20T06:44:19;67070.84;;;0.71;93.95
3844;BME280;1937;51.444;6.484;2022-11-20T06:46:48;67109.06;;;0.69;94.19
3844;BME280;1937;51.444;6.484;2022-11-20T06:49:16;67162.56;;;0.85;93.69
3844;BME280;1937;51.444;6.484;2022-11-20T06:51:44;67155.41;;;0.74;94.60
3844;BME280;1937;51.444;6.484;2022-11-20T06:54:12;67240.59;;;1.15;94.43
3844;BME280;1937;51.444;6.484;2022-11-20T06:56:41;67186.00;;;1.23;93.28
3844;BME280;1937;51.444;6.484;2022-11-20T06:59:12;67219.91;;;1.26;92.73
3844;BME280;1937;51.444;6.484;2022-11-20T07:01:40;67124.16;;;1.27;92.85
3844;BME280;1937;51.444;6.484;2022-11-20T07:04:10;67192.78;;;1.24;93.00
3844;BME280;1937;51.444;6.484;2022-11-20T07:06:38;67180.50;;;1.27;93.16
3844;BME280;1937;51.444;6.484;2022-11-20T07:09:06;67224.19;;;1.28;92.96
3844;BME280;1937;51.444;6.484;2022-11-20T07:11:35;67209.59;;;1.21;93.12
3844;BME280;1937;51.444;6.484;2022-11-20T07:14:03;67214.63;;;1.28;92.71
3844;BME280;1937;51.444;6.484;2022-11-20T07:16:33;67181.88;;;1.26;92.12
3844;BME280;1937;51.444;6.484;2022-11-20T07:19:01;67182.22;;;0.91;92.83
3844;BME280;1937;51.444;6.484;2022-11-20T07:21:30;67120.84;;;0.84;93.29
3844;BME280;1937;51.444;6.484;2022-11-20T07:23:59;67121.31;;;0.73;94.22
3844;BME280;1937;51.444;6.484;2022-11-20T07:26:27;67157.91;;;0.81;94.50
3844;BME280;1937;51.444;6.484;2022-11-20T07:28:56;67177.53;;;0.94;94.12
3844;BME280;1937;51.444;6.484;2022-11-20T07:31:24;67195.22;;;1.00;93.77
3844;BME280;1937;51.444;6.484;2022-11-20T07:33:53;67153.22;;;0.83;94.34
3844;BME280;1937;51.444;6.484;2022-11-20T07:36:22;67232.84;;;1.11;93.52
3844;BME280;1937;51.444;6.484;2022-11-20T07:38:51;67121.09;;;0.75;94.05
3844;BME280;1937;51.444;6.484;2022-11-20T07:41:19;67151.31;;;0.71;94.67
3844;BME280;1937;51.444;6.484;2022-11-20T07:43:48;67196.69;;;0.79;94.87
3844;BME280;1937;51.444;6.484;2022-11-20T07:46:16;67267.34;;;1.08;94.90
3844;BME280;1937;51.444;6.484;2022-11-20T07:48:45;67211.38;;;1.10;93.82
3844;BME280;1937;51.444;6.484;2022-11-20T07:51:14;67247.66;;;1.02;94.48
3844;BME280;1937;51.444;6.484;2022-11-20T07:53:43;67259.16;;;1.07;94.21
3844;BME280;1937;51.444;6.484;2022-11-20T07:56:11;67217.28;;;0.89;94.50
3844;BME280;1937;51.444;6.484;2022-11-20T07:58:41;67302.44;;;1.05;95.66
3844;BME280;1937;51.444;6.484;2022-11-20T08:01:10;67315.84;;;1.23;95.03
3844;BME280;1937;51.444;6.484;2022-11-20T08:03:39;67312.94;;;1.21;94.66
3844;BME280;1937;51.444;6.484;2022-11-20T08:06:08;67347.22;;;1.40;94.25
3844;BME280;1937;51.444;6.484;2022-11-20T08:08:39;67318.72;;;1.39;94.91
3844;BME280;1937;51.444;6.484;2022-11-20T08:11:07;67398.25;;;1.62;94.93
3844;BME280;1937;51.444;6.484;2022-11-20T08:13:54;67394.94;;;1.70;94.08
3844;BME280;1937;51.444;6.484;2022-11-20T08:16:41;67358.03;;;1.71;94.36
3844;BME280;1937;51.444;6.484;2022-11-20T08:19:10;67402.50;;;1.83;94.05
3844;BME280;1937;51.444;6.484;2022-11-20T08:21:38;67463.34;;;2.10;93.91
3844;BME280;1937;51.444;6.484;2022-11-20T08:24:09;67493.97;;;2.40;92.67
3844;BME280;1937;51.444;6.484;2022-11-20T08:26:39;67487.00;;;2.72;91.72
3844;BME280;1937;51.444;6.484;2022-11-20T08:29:09;67448.25;;;2.84;89.54
3844;BME280;1937;51.444;6.484;2022-11-20T08:31:37;67397.25;;;2.80;90.01
3844;BME280;1937;51.444;6.484;2022-11-20T08:34:06;67424.84;;;3.15;89.61
3844;BME280;1937;51.444;6.484;2022-11-20T08:36:35;67490.50;;;3.63;88.04
3844;BME280;1937;51.444;6.484;2022-11-20T08:39:04;67420.81;;;3.91;85.94
3844;BME280;1937;51.444;6.484;2022-11-20T08:41:33;67314.47;;;3.91;84.34
3844;BME280;1937;51.444;6.484;2022-11-20T08:44:06;67217.63;;;3.62;84.66
3844;BME280;1937;51.444;6.484;2022-11-20T08:46:36;67281.28;;;3.98;85.94
3844;BME280;1937;51.444;6.484;2022-11-20T08:49:05;67300.28;;;3.99;85.16
3844;BME280;1937;51.444;6.484;2022-11-20T08:51:34;67365.91;;;3.98;84.65
3844;BME280;1937;51.444;6.484;2022-11-20T08:54:04;67210.00;;;3.62;84.97
3844;BME280;1937;51.444;6.484;2022-11-20T08:56:34;67263.00;;;3.66;85.14
3844;BME280;1937;51.444;6.484;2022-11-20T08:59:03;67209.56;;;3.66;85.95
3844;BME280;1937;51.444;6.484;2022-11-20T09:01:33;67270.13;;;3.77;85.74
3844;BME280;1937;51.444;6.484;2022-11-20T09:04:02;67279.97;;;3.75;85.74
3844;BME280;1937;51.444;6.484;2022-11-20T09:06:32;67300.16;;;3.94;85.51
3844;BME280;1937;51.444;6.484;2022-11-20T09:09:00;67244.50;;;3.55;87.08
3844;BME280;1937;51.444;6.484;2022-11-20T09:11:29;67284.69;;;3.48;86.69
3844;BME280;1937;51.444;6.484;2022-11-20T09:13:58;67205.41;;;3.10;88.69
3844;BME280;1937;51.444;6.484;2022-11-20T09:16:27;67264.63;;;3.15;89.25
3844;BME280;1937;51.444;6.484;2022-11-20T09:18:55;67289.03;;;3.18;89.48
3844;BME280;1937;51.444;6.484;2022-11-20T09:21:26;67344.22;;;3.44;89.90
3844;BME280;1937;51.444;6.484;2022-11-20T09:23:56;67386.63;;;3.52;90.62
3844;BME280;1937;51.444;6.484;2022-11-20T09:26:26;67490.13;;;3.91;89.35
3844;BME280;1937;51.444;6.484;2022-11-20T09:28:55;67535.13;;;4.30;89.05
3844;BME280;1937;51.444;6.484;2022-11-20T09:31:25;67370.38;;;3.56;89.16
3844;BME280;1937;51.444;6.484;2022-11-20T09:33:54;67385.84;;;3.54;90.37
3844;BME280;1937;51.444;6.484;2022-11-20T09:36:23;67418.69;;;3.25;91.95
3844;BME280;1937;51.444;6.484;2022-11-20T09:38:51;67517.97;;;3.49;92.20
3844;BME280;1937;51.444;6.484;2022-11-20T09:41:36;67588.00;;;4.05;91.51
3844;BME280;1937;51.444;6.484;2022-11-20T09:44:15;67591.59;;;4.26;90.44
3844;BME280;1937;51.444;6.484;2022-11-20T09:46:52;67631.13;;;4.69;88.87
3844;BME280;1937;51.444;6.484;2022-11-20T09:49:26;67591.75;;;4.62;87.46
3844;BME280;1937;51.444;6.484;2022-11-20T09:52:00;67431.97;;;4.18;87.60
3844;BME280;1937;51.444;6.484;2022-11-20T09:54:31;67470.69;;;4.49;87.82
3844;BME280;1937;51.444;6.484;2022-11-20T09:57:03;67484.00;;;4.26;88.29
3844;BME280;1937;51.444;6.484;2022-11-20T09:59:35;67527.28;;;4.57;88.56
3844;BME280;1937;51.444;6.484;2022-11-20T10:02:19;67505.84;;;4.42;87.96
3844;BME280;1937;51.444;6.484;2022-11-20T10:04:55;67518.34;;;4.20;88.88
3844;BME280;1937;51.444;6.484;2022-11-20T10:07:32;67523.78;;;4.29;89.32
3844;BME280;1937;51.444;6.484;2022-11-20T10:10:13;67565.97;;;4.52;89.18
3844;BME280;1937;51.444;6.484;2022-11-20T10:12:50;67518.47;;;4.56;89.20
3844;BME280;1937;51.444;6.484;2022-11-20T10:15:31;67514.06;;;4.43;89.06
3844;BME280;1937;51.444;6.484;2022-11-20T10:18:23;67469.00;;;4.17;89.62
3844;BME280;1937;51.444;6.484;2022-11-20T10:20:58;67530.75;;;4.11;91.40
3844;BME280;1937;51.444;6.484;2022-11-20T10:23:41;67559.50;;;4.23;90.67
3844;BME280;1937;51.444;6.484;2022-11-20T10:26:20;67654.53;;;4.59;90.99
3844;BME280;1937;51.444;6.484;2022-11-20T10:29:03;67681.25;;;4.84;89.86
3844;BME280;1937;51.444;6.484;2022-11-20T10:31:38;67667.16;;;4.47;90.56
3844;BME280;1937;51.444;6.484;2022-11-20T10:34:15;67711.84;;;4.84;90.21
3844;BME280;1937;51.444;6.484;2022-11-20T10:36:49;67683.53;;;4.99;89.15
3844;BME280;1937;51.444;6.484;2022-11-20T10:39:22;67647.69;;;4.88;89.44
3844;BME280;1937;51.444;6.484;2022-11-20T10:41:55;67618.00;;;4.67;89.48
3844;BME280;1937;51.444;6.484;2022-11-20T10:44:28;67618.44;;;4.63;90.63
3844;BME280;1937;51.444;6.484;2022-11-20T10:47:16;67675.81;;;4.75;90.90
3844;BME280;1937;51.444;6.484;2022-11-20T10:49:48;67694.72;;;4.95;89.95
3844;BME280;1937;51.444;6.484;2022-11-20T10:52:23;67601.81;;;4.57;90.56
3844;BME280;1937;51.444;6.484;2022-11-20T10:54:56;67709.72;;;4.80;89.89
3844;BME280;1937;51.444;6.484;2022-11-20T10:57:35;67725.91;;;4.96;90.12
3844;BME280;1937;51.444;6.484;2022-11-20T11:00:12;67711.94;;;5.02;90.37
3844;BME280;1937;51.444;6.484;2022-11-20T11:02:44;67687.75;;;4.83;91.02
3844;BME280;1937;51.444;6.484;2022-11-20T11:05:31;67776.94;;;4.96;91.47
3844;BME280;1937;51.444;6.484;2022-11-20T11:08:02;67799.44;;;5.07;91.44
3844;BME280;1937;51.444;6.484;2022-11-20T11:10:35;67759.44;;;5.05;91.02
3844;BME280;1937;51.444;6.484;2022-11-20T11:13:05;67689.31;;;4.42;92.58
3844;BME280;1937;51.444;6.484;2022-11-20T11:15:39;67830.34;;;4.78;93.14
3844;BME280;1937;51.444;6.484;2022-11-20T11:18:10;67829.31;;;4.95;91.74
3844;BME280;1937;51.444;6.484;2022-11-20T11:20:40;67766.69;;;4.59;92.73
3844;BME280;1937;51.444;6.484;2022-11-20T11:23:31;67834.09;;;4.73;93.37
3844;BME280;1937;51.444;6.484;2022-11-20T11:26:02;67892.31;;;4.83;93.90
3844;BME280;1937;51.444;6.484;2022-11-20T11:28:31;67857.88;;;4.65;93.89
3844;BME280;1937;51.444;6.484;2022-11-20T11:31:00;67870.03;;;4.64;94.06
3844;BME280;1937;51.444;6.484;2022-11-20T11:33:32;67874.13;;;4.74;93.88
3844;BME280;1937;51.444;6.484;2022-11-20T11:36:05;67894.91;;;4.77;93.29
3844;BME280;1937;51.444;6.484;2022-11-20T11:38:45;67889.59;;;4.79;93.02
3844;BME280;1937;51.444;6.484;2022-11-20T11:41:17;67871.41;;;4.63;94.34
3844;BME280;1937;51.444;6.484;2022-11-20T11:43:53;67976.69;;;4.94;93.71
3844;BME280;1937;51.444;6.484;2022-11-20T11:46:40;68017.28;;;5.03;93.53
3844;BME280;1937;51.444;6.484;2022-11-20T11:49:18;67908.22;;;4.84;92.91
3844;BME280;1937;51.444;6.484;2022-11-20T11:52:05;67909.56;;;4.96;92.81
3844;BME280;1937;51.444;6.484;2022-11-20T11:54:41;67915.84;;;4.90;93.28
3844;BME280;1937;51.444;6.484;2022-11-20T11:57:14;67968.63;;;5.05;93.65
3844;BME280;1937;51.444;6.484;2022-11-20T11:59:54;67937.41;;;5.05;92.79
3844;BME280;1937;51.444;6.484;2022-11-20T12:02:29;67988.97;;;5.31;92.11
3844;BME280;1937;51.444;6.484;2022-11-20T12:05:03;67899.31;;;5.16;91.90
3844;BME280;1937;51.444;6.484;2022-11-20T12:07:45;67963.50;;;5.12;92.68
3844;BME280;1937;51.444;6.484;2022-11-20T12:10:19;67923.03;;;5.21;92.39
3844;BME280;1937;51.444;6.484;2022-11-20T12:12:50;67963.66;;;5.29;92.32
3844;BME280;1937;51.444;6.484;2022-11-20T12:15:26;67967.34;;;5.50;92.08
3844;BME280;1937;51.444;6.484;2022-11-20T12:17:57;67944.00;;;5.41;91.16
3844;BME280;1937;51.444;6.484;2022-11-20T12:20:28;67890.41;;;5.34;90.38
3844;BME280;1937;51.444;6.484;2022-11-20T12:23:04;67830.00;;;5.20;91.05
3844;BME280;1937;51.444;6.484;2022-11-20T12:25:38;67910.03;;;5.36;91.46
3844;BME280;1937;51.444;6.484;2022-11-20T12:28:31;67970.69;;;5.42;92.09
3844;BME280;1937;51.444;6.484;2022-11-20T12:31:13;67934.41;;;5.35;91.92
3844;BME280;1937;51.444;6.484;2022-11-20T12:34:00;67895.13;;;5.32;91.09
3844;BME280;1937;51.444;6.484;2022-11-20T12:36:39;67811.81;;;5.04;91.79
3844;BME280;1937;51.444;6.484;2022-11-20T12:39:38;67900.03;;;5.34;92.12
3844;BME280;1937;51.444;6.484;2022-11-20T12:42:31;67927.38;;;5.16;92.95
3844;BME280;1937;51.444;6.484;2022-11-20T12:45:39;67977.56;;;5.37;93.12
3844;BME280;1937;51.444;6.484;2022-11-20T12:51:24;67948.72;;;5.32;92.56
3844;BME280;1937;51.444;6.484;2022-11-20T12:54:06;67971.78;;;4.99;94.85
3844;BME280;1937;51.444;6.484;2022-11-20T12:56:42;68082.25;;;5.24;94.94
3844;BME280;1937;51.444;6.484;2022-11-20T12:59:33;68137.22;;;5.49;94.17
3844;BME280;1937;51.444;6.484;2022-11-20T13:02:09;68078.13;;;5.20;95.79
3844;BME280;1937;51.444;6.484;2022-11-20T13:05:13;68238.75;;;5.55;94.93
3844;BME280;1937;51.444;6.484;2022-11-20T13:07:46;68205.16;;;5.33;95.77
3844;BME280;1937;51.444;6.484;2022-11-20T13:10:20;68260.66;;;5.19;97.26
3844;BME280;1937;51.444;6.484;2022-11-20T13:12:54;68232.34;;;4.95;98.62
3844;BME280;1937;51.444;6.484;2022-11-20T13:15:35;68330.47;;;4.96;99.10
3844;BME280;1937;51.444;6.484;2022-11-20T13:18:10;68400.50;;;4.90;99.63
3844;BME280;1937;51.444;6.484;2022-11-20T13:20:44;68623.16;;;5.04;99.73
3844;BME280;1937;51.444;6.484;2022-11-20T13:23:23;68553.88;;;5.08;99.85
3844;BME280;1937;51.444;6.484;2022-11-20T13:26:01;68557.47;;;4.89;100.00
3844;BME280;1937;51.444;6.484;2022-11-20T13:28:32;68722.53;;;5.13;100.00
3844;BME280;1937;51.444;6.484;2022-11-20T13:31:00;68762.06;;;4.99;100.00
3844;BME280;1937;51.444;6.484;2022-11-20T13:33:31;68791.38;;;5.21;100.00
3844;BME280;1937;51.444;6.484;2022-11-20T13:36:02;68789.06;;;5.26;99.96
3844;BME280;1937;51.444;6.484;2022-11-20T13:38:43;68701.94;;;5.30;99.42
3844;BME280;1937;51.444;6.484;2022-11-20T13:41:22;68783.09;;;5.21;100.00
3844;BME280;1937;51.444;6.484;2022-11-20T13:44:13;68828.28;;;5.22;100.00
3844;BME280;1937;51.444;6.484;2022-11-20T13:46:44;68816.31;;;4.90;100.00
3844;BME280;1937;51.444;6.484;2022-11-20T13:49:21;68944.31;;;4.93;100.00
3844;BME280;1937;51.444;6.484;2022-11-20T13:51:54;69065.03;;;5.07;100.00
3844;BME280;1937;51.444;6.484;2022-11-20T13:54:54;69130.50;;;5.02;100.00
3844;BME280;1937;51.444;6.484;2022-11-20T13:57:37;69135.00;;;4.77;100.00
3844;BME280;1937;51.444;6.484;2022-11-20T14:00:14;69449.53;;;4.84;100.00